Time;durP1;ratioP1;P1;durP2;ratioP2;P2;SDS_P1;SDS_P2;PMS_P1;PMS_P2;Temp;Humidity;BMP_temperature;BMP_pressure;BME280_temperature;BME280_humidity;BME280_pressure;Samples;Min_cycle;Max_cycle;Signal;HPM_P1;HPM_P2
2022/03/01 00:02:25;;;;;;;3.92;3.05;;;4.10;99.90;;;;;;5055227;28;20620;-66
2022/03/01 00:04:53;;;;;;;6.72;3.55;;;4.10;99.90;;;;;;5062213;28;20210;-66
2022/03/01 00:07:20;;;;;;;5.00;3.80;;;4.10;99.90;;;;;;5062278;28;20201;-64
2022/03/01 00:09:47;;;;;;;3.90;3.50;;;4.10;99.90;;;;;;5064203;28;20198;-66
2022/03/01 00:12:13;;;;;;;3.15;2.95;;;4.10;99.90;;;;;;5063106;28;20255;-67
2022/03/01 00:14:40;;;;;;;6.75;3.83;;;4.10;99.90;;;;;;5068210;28;20733;-67
2022/03/01 00:17:07;;;;;;;6.35;4.10;;;4.10;99.90;;;;;;5065058;28;20679;-66
2022/03/01 00:19:34;;;;;;;4.18;3.85;;;4.00;99.90;;;;;;5050938;28;20268;-67
2022/03/01 00:22:01;;;;;;;4.20;3.80;;;3.90;99.90;;;;;;5064868;28;21030;-67
2022/03/01 00:24:28;;;;;;;6.15;2.78;;;3.90;99.90;;;;;;5064785;28;20248;-65
2022/03/01 00:26:54;;;;;;;6.15;3.42;;;3.90;99.90;;;;;;5064603;28;21131;-65
2022/03/01 00:29:21;;;;;;;5.38;2.67;;;3.90;99.90;;;;;;5066342;28;20677;-66
2022/03/01 00:31:48;;;;;;;5.05;2.88;;;3.90;99.90;;;;;;5068186;28;20232;-65
2022/03/01 00:34:15;;;;;;;4.28;3.83;;;3.90;99.90;;;;;;5060971;28;20581;-65
2022/03/01 00:36:43;;;;;;;3.40;3.00;;;3.90;99.90;;;;;;5063910;28;20205;-65
2022/03/01 00:39:09;;;;;;;3.53;3.20;;;3.90;99.90;;;;;;5067065;28;20225;-65
2022/03/01 00:41:36;;;;;;;4.28;3.67;;;3.80;99.90;;;;;;5065208;28;20512;-66
2022/03/01 00:44:03;;;;;;;4.22;3.83;;;3.80;99.90;;;;;;5063458;28;20211;-65
2022/03/01 00:46:30;;;;;;;4.30;2.92;;;3.70;99.90;;;;;;5059279;28;20272;-65
2022/03/01 00:48:58;;;;;;;4.63;3.35;;;3.60;99.90;;;;;;5063927;28;20586;-66
2022/03/01 00:51:26;;;;;;;3.67;3.38;;;3.60;99.90;;;;;;5059458;28;20236;-65
2022/03/01 00:53:55;;;;;;;3.83;3.00;;;3.70;99.90;;;;;;5067614;28;20206;-65
2022/03/01 00:56:21;;;;;;;3.95;3.30;;;3.70;99.90;;;;;;5067946;28;20672;-67
2022/03/01 00:58:48;;;;;;;4.68;3.63;;;3.70;99.90;;;;;;5067988;28;20205;-65
2022/03/01 01:01:15;;;;;;;5.43;4.00;;;3.70;99.90;;;;;;5067874;28;20282;-65
2022/03/01 01:03:41;;;;;;;6.47;3.42;;;3.70;99.90;;;;;;5067354;28;20250;-66
2022/03/01 01:06:08;;;;;;;6.05;4.38;;;3.70;99.90;;;;;;5055139;28;20779;-64
2022/03/01 01:08:35;;;;;;;4.15;3.70;;;3.70;99.90;;;;;;5056599;28;20209;-65
2022/03/01 01:11:03;;;;;;;3.78;2.67;;;3.60;99.90;;;;;;5062588;28;20304;-65
2022/03/01 01:13:30;;;;;;;7.95;4.00;;;3.60;99.90;;;;;;5051586;28;20218;-66
2022/03/01 01:15:57;;;;;;;8.23;5.05;;;3.60;99.90;;;;;;5062384;28;20279;-66
2022/03/01 01:18:24;;;;;;;3.72;3.40;;;3.60;99.90;;;;;;5057370;28;20687;-66
2022/03/01 01:20:50;;;;;;;3.38;3.08;;;3.60;99.90;;;;;;5059233;28;20221;-65
2022/03/01 01:23:17;;;;;;;4.10;3.70;;;3.60;99.90;;;;;;5071098;28;20210;-66
2022/03/01 01:25:44;;;;;;;4.05;3.40;;;3.70;99.90;;;;;;5057754;28;20210;-66
2022/03/01 01:28:12;;;;;;;3.80;3.35;;;3.60;99.90;;;;;;5071287;28;20209;-66
2022/03/01 01:30:39;;;;;;;5.95;4.13;;;3.50;99.90;;;;;;5066046;28;20577;-65
2022/03/01 01:33:05;;;;;;;4.18;3.25;;;3.50;99.90;;;;;;5068443;28;20197;-65
2022/03/01 01:35:34;;;;;;;3.63;3.00;;;3.40;99.90;;;;;;5063381;28;20673;-66
2022/03/01 01:38:02;;;;;;;5.72;3.40;;;3.30;99.90;;;;;;5071106;28;20198;-65
2022/03/01 01:40:30;;;;;;;3.20;2.88;;;3.30;99.90;;;;;;5069405;28;20278;-65
2022/03/01 01:42:58;;;;;;;5.85;3.88;;;3.20;99.90;;;;;;5070429;28;20728;-66
2022/03/01 01:45:28;;;;;;;7.68;4.00;;;3.20;99.90;;;;;;5064840;28;20201;-66
2022/03/01 01:47:55;;;;;;;4.65;3.95;;;3.20;99.90;;;;;;5068343;28;20205;-66
2022/03/01 01:50:23;;;;;;;3.28;2.83;;;3.20;99.90;;;;;;5064333;28;20274;-65
2022/03/01 01:52:51;;;;;;;6.72;4.78;;;3.10;99.90;;;;;;5070579;28;20216;-65
2022/03/01 01:55:20;;;;;;;5.97;4.00;;;3.10;99.90;;;;;;5062235;28;20267;-65
2022/03/01 01:57:47;;;;;;;3.33;3.00;;;3.10;99.90;;;;;;5068624;28;20214;-65
2022/03/01 02:00:15;;;;;;;4.15;3.22;;;3.10;99.90;;;;;;5067543;28;20291;-66
2022/03/01 02:02:44;;;;;;;4.20;3.28;;;3.10;99.90;;;;;;5062773;28;20198;-65
2022/03/01 02:05:11;;;;;;;5.18;4.00;;;3.10;99.90;;;;;;5057178;28;20205;-66
2022/03/01 02:07:38;;;;;;;3.72;2.70;;;3.10;99.90;;;;;;5070839;28;20682;-65
2022/03/01 02:10:07;;;;;;;4.78;3.40;;;3.10;99.90;;;;;;5065167;28;20228;-65
2022/03/01 02:12:34;;;;;;;3.17;2.17;;;3.00;99.90;;;;;;5064463;28;20202;-66
2022/03/01 02:15:01;;;;;;;4.10;3.70;;;3.00;99.90;;;;;;5057103;28;20764;-66
2022/03/01 02:17:28;;;;;;;7.43;4.85;;;3.00;99.90;;;;;;5070741;28;20213;-66
2022/03/01 02:19:56;;;;;;;4.25;3.10;;;3.00;99.90;;;;;;5068894;28;20772;-65
2022/03/01 02:22:32;;;;;;;3.50;3.15;;;3.00;99.90;;;;;;5068736;28;20205;-66
2022/03/01 02:24:59;;;;;;;4.55;3.13;;;3.10;99.90;;;;;;5063317;28;20262;-66
2022/03/01 02:27:25;;;;;;;4.47;2.70;;;3.10;99.90;;;;;;5069954;28;20208;-65
2022/03/01 02:29:52;;;;;;;3.22;2.92;;;3.10;99.90;;;;;;5069353;28;20222;-64
2022/03/01 02:32:19;;;;;;;5.60;5.07;;;3.10;99.90;;;;;;5069504;28;20266;-65
2022/03/01 02:34:47;;;;;;;3.17;2.97;;;3.20;99.90;;;;;;5068198;28;20267;-65
2022/03/01 02:37:14;;;;;;;4.55;3.25;;;3.10;99.90;;;;;;5083952;28;20205;-66
2022/03/01 02:39:42;;;;;;;3.97;3.78;;;3.10;99.90;;;;;;5069117;28;20510;-65
2022/03/01 02:42:08;;;;;;;2.65;2.28;;;3.20;99.90;;;;;;5068849;28;20209;-66
2022/03/01 02:44:35;;;;;;;4.18;2.83;;;3.20;99.90;;;;;;5069660;28;20206;-67
2022/03/01 02:47:02;;;;;;;3.75;2.75;;;3.20;99.90;;;;;;5056745;28;20212;-67
2022/03/01 02:49:28;;;;;;;4.10;3.42;;;3.20;99.90;;;;;;5067956;28;20873;-65
2022/03/01 02:51:55;;;;;;;4.13;2.45;;;3.30;99.90;;;;;;5056551;28;20230;-65
2022/03/01 02:54:21;;;;;;;11.95;3.03;;;3.30;99.90;;;;;;5069749;28;20224;-65
2022/03/01 02:56:49;;;;;;;5.60;3.85;;;3.20;99.90;;;;;;5069723;28;20209;-66
2022/03/01 02:59:16;;;;;;;7.22;3.53;;;3.20;99.90;;;;;;5069838;28;20201;-65
2022/03/01 03:01:43;;;;;;;4.63;2.95;;;3.20;99.90;;;;;;5069327;28;20233;-65
2022/03/01 03:04:09;;;;;;;4.15;3.75;;;3.30;99.90;;;;;;5062002;28;20313;-65
2022/03/01 03:06:36;;;;;;;4.25;3.58;;;3.30;99.90;;;;;;5061039;28;20268;-65
2022/03/01 03:09:03;;;;;;;4.53;2.90;;;3.30;99.90;;;;;;5065240;28;20263;-65
2022/03/01 03:11:29;;;;;;;4.35;3.05;;;3.30;99.90;;;;;;5067427;28;20731;-65
2022/03/01 03:13:57;;;;;;;5.03;3.25;;;3.30;99.90;;;;;;5066525;28;20686;-65
2022/03/01 03:16:27;;;;;;;5.82;3.15;;;3.30;99.90;;;;;;5060953;28;20549;-67
2022/03/01 03:18:53;;;;;;;4.25;3.25;;;3.40;99.90;;;;;;5068855;28;20204;-67
2022/03/01 03:21:20;;;;;;;3.90;2.88;;;3.30;99.90;;;;;;5059849;28;20232;-65
2022/03/01 03:23:47;;;;;;;3.20;2.90;;;3.40;99.90;;;;;;5065405;28;20203;-67
2022/03/01 03:26:14;;;;;;;4.25;3.85;;;3.40;99.90;;;;;;5059958;28;20247;-65
2022/03/01 03:28:40;;;;;;;4.38;4.05;;;3.40;99.90;;;;;;5079478;28;20274;-65
2022/03/01 03:31:08;;;;;;;3.85;3.40;;;3.40;99.90;;;;;;5076986;28;20293;-66
2022/03/01 03:33:35;;;;;;;3.35;3.10;;;3.40;99.90;;;;;;5068282;28;20623;-66
2022/03/01 03:36:03;;;;;;;3.15;2.95;;;3.40;99.90;;;;;;5069210;28;20740;-66
2022/03/01 03:38:29;;;;;;;3.33;3.03;;;3.40;99.90;;;;;;5056396;28;20736;-65
2022/03/01 03:40:56;;;;;;;5.35;2.55;;;3.40;99.90;;;;;;5058560;28;20230;-66
2022/03/01 03:43:23;;;;;;;3.22;2.88;;;3.40;99.90;;;;;;5064814;28;20310;-65
2022/03/01 03:45:50;;;;;;;3.33;2.78;;;3.40;99.90;;;;;;5065291;28;20208;-66
2022/03/01 03:48:17;;;;;;;4.05;2.83;;;3.40;99.90;;;;;;5067649;28;20201;-65
2022/03/01 03:50:44;;;;;;;4.97;3.55;;;3.40;99.90;;;;;;5063335;28;20633;-65
2022/03/01 03:53:11;;;;;;;4.63;4.15;;;3.40;99.90;;;;;;5064376;28;20205;-65
2022/03/01 03:55:37;;;;;;;4.40;4.00;;;3.40;99.90;;;;;;5059510;28;20213;-66
2022/03/01 03:58:04;;;;;;;4.60;4.13;;;3.30;99.90;;;;;;5055611;28;20209;-65
2022/03/01 04:00:31;;;;;;;2.50;2.30;;;3.30;99.90;;;;;;5068900;28;20318;-65
2022/03/01 04:02:58;;;;;;;3.80;3.00;;;3.30;99.90;;;;;;5061139;28;20202;-67
2022/03/01 04:05:26;;;;;;;8.15;2.97;;;3.30;99.90;;;;;;5068176;28;20201;-65
2022/03/01 04:07:52;;;;;;;2.38;2.17;;;3.30;99.90;;;;;;5055256;28;20243;-65
2022/03/01 04:10:19;;;;;;;3.38;2.65;;;3.20;99.90;;;;;;5055457;28;20229;-65
2022/03/01 04:12:46;;;;;;;3.50;3.17;;;3.30;99.90;;;;;;5063879;28;20205;-65
2022/03/01 04:15:13;;;;;;;4.72;3.10;;;3.30;99.90;;;;;;5055680;28;20276;-65
2022/03/01 04:17:40;;;;;;;4.18;3.80;;;3.30;99.90;;;;;;5081657;28;20224;-66
2022/03/01 04:20:08;;;;;;;3.28;3.08;;;3.30;99.90;;;;;;5068200;28;20294;-66
2022/03/01 04:22:37;;;;;;;4.30;4.00;;;3.30;99.90;;;;;;5068717;28;20206;-66
2022/03/01 04:25:05;;;;;;;3.95;3.13;;;3.30;99.90;;;;;;5068671;28;20210;-65
2022/03/01 04:27:32;;;;;;;6.43;4.82;;;3.30;99.90;;;;;;5060372;28;20210;-66
2022/03/01 04:29:58;;;;;;;6.30;3.90;;;3.30;99.90;;;;;;5062760;28;20817;-65
2022/03/01 04:32:25;;;;;;;3.50;3.03;;;3.30;99.90;;;;;;5068379;28;20209;-66
2022/03/01 04:34:52;;;;;;;5.10;3.95;;;3.30;99.90;;;;;;5067175;28;20667;-65
2022/03/01 04:37:19;;;;;;;3.85;3.40;;;3.30;99.90;;;;;;5059667;28;20718;-65
2022/03/01 04:39:47;;;;;;;9.15;4.30;;;3.30;99.90;;;;;;5063687;28;20734;-65
2022/03/01 04:42:13;;;;;;;3.13;2.75;;;3.20;99.90;;;;;;5064241;28;20217;-65
2022/03/01 04:44:40;;;;;;;2.53;2.30;;;3.20;99.90;;;;;;5068087;28;20217;-65
2022/03/01 04:47:07;;;;;;;3.65;3.13;;;3.20;99.90;;;;;;5059627;28;20251;-65
2022/03/01 04:49:34;;;;;;;5.57;3.65;;;3.20;99.90;;;;;;5063676;28;20271;-65
2022/03/01 04:52:00;;;;;;;7.15;5.05;;;3.10;99.90;;;;;;5068128;28;20253;-65
2022/03/01 04:54:27;;;;;;;3.78;3.35;;;3.10;99.90;;;;;;5057784;28;20240;-65
2022/03/01 04:56:55;;;;;;;3.30;3.00;;;3.10;99.90;;;;;;5071871;28;20205;-66
2022/03/01 04:59:22;;;;;;;4.63;3.63;;;3.10;99.90;;;;;;5072007;28;20216;-66
2022/03/01 05:01:49;;;;;;;3.95;3.28;;;3.00;99.90;;;;;;5071847;28;20713;-65
2022/03/01 05:04:15;;;;;;;4.78;4.00;;;3.00;99.90;;;;;;5071520;28;20766;-65
2022/03/01 05:06:42;;;;;;;3.65;2.80;;;3.00;99.90;;;;;;5081829;28;20261;-65
2022/03/01 05:09:09;;;;;;;8.82;3.80;;;2.90;99.90;;;;;;5075455;28;20213;-67
2022/03/01 05:11:36;;;;;;;4.75;3.38;;;2.90;99.90;;;;;;5071347;28;20225;-67
2022/03/01 05:14:05;;;;;;;3.55;3.25;;;2.90;99.90;;;;;;5071594;28;20228;-66
2022/03/01 05:16:31;;;;;;;4.78;3.80;;;2.90;99.90;;;;;;5061276;28;20209;-67
2022/03/01 05:18:58;;;;;;;4.82;3.92;;;2.90;99.90;;;;;;5065559;28;20216;-65
2022/03/01 05:21:24;;;;;;;4.30;3.90;;;2.90;99.90;;;;;;5067045;28;20715;-66
2022/03/01 05:23:51;;;;;;;3.72;3.35;;;2.80;99.90;;;;;;5066844;28;20201;-66
2022/03/01 05:26:18;;;;;;;3.20;2.90;;;2.80;99.90;;;;;;5062436;28;20197;-65
2022/03/01 05:28:45;;;;;;;3.58;3.13;;;2.80;99.90;;;;;;5071678;28;20259;-65
2022/03/01 05:31:13;;;;;;;3.70;2.72;;;2.80;99.90;;;;;;5072983;22;20236;-64
2022/03/01 05:33:40;;;;;;;5.32;4.85;;;2.80;99.90;;;;;;5052389;28;20248;-67
2022/03/01 05:36:07;;;;;;;5.00;4.57;;;2.80;99.90;;;;;;5055925;28;20213;-69
2022/03/01 05:38:33;;;;;;;3.97;3.35;;;2.80;99.90;;;;;;5051762;28;20209;-67
2022/03/01 05:41:01;;;;;;;3.10;2.80;;;2.70;99.90;;;;;;5051409;28;20260;-67
2022/03/01 05:43:27;;;;;;;6.40;3.78;;;2.70;99.90;;;;;;5050914;28;20202;-67
2022/03/01 05:45:54;;;;;;;3.40;3.03;;;2.70;99.90;;;;;;5049024;28;20202;-66
2022/03/01 05:48:22;;;;;;;3.42;3.13;;;2.70;99.90;;;;;;5051386;28;20209;-67
2022/03/01 05:50:49;;;;;;;5.43;3.83;;;2.70;99.90;;;;;;5051507;28;20283;-65
2022/03/01 05:53:15;;;;;;;3.97;2.65;;;2.70;99.90;;;;;;5050862;28;20267;-67
2022/03/01 05:55:42;;;;;;;5.15;3.90;;;2.70;99.90;;;;;;5043886;28;20214;-66
2022/03/01 05:58:09;;;;;;;3.92;3.53;;;2.70;99.90;;;;;;5045593;28;20674;-65
2022/03/01 06:00:36;;;;;;;8.07;4.50;;;2.70;99.90;;;;;;5046680;28;20205;-66
2022/03/01 06:03:03;;;;;;;4.18;3.80;;;2.70;99.90;;;;;;5047757;28;20209;-63
2022/03/01 06:05:31;;;;;;;7.95;4.93;;;2.70;99.90;;;;;;5044602;28;20210;-67
2022/03/01 06:07:58;;;;;;;7.43;3.20;;;2.70;99.90;;;;;;5061907;28;20300;-67
2022/03/01 06:10:26;;;;;;;6.43;3.80;;;2.70;99.90;;;;;;5050201;28;20206;-68
2022/03/01 06:12:53;;;;;;;4.57;3.50;;;2.70;99.90;;;;;;5062282;28;20250;-68
2022/03/01 06:15:20;;;;;;;7.05;4.10;;;2.70;99.90;;;;;;5045894;28;20210;-67
2022/03/01 06:17:47;;;;;;;3.65;2.92;;;2.70;99.90;;;;;;5050405;28;20201;-66
2022/03/01 06:20:14;;;;;;;5.65;4.10;;;2.70;99.90;;;;;;5051474;28;20201;-67
2022/03/01 06:22:42;;;;;;;8.95;4.22;;;2.70;99.90;;;;;;5042547;28;20229;-67
2022/03/01 06:25:10;;;;;;;7.25;4.07;;;2.70;99.90;;;;;;5037266;28;20207;-68
2022/03/01 06:27:38;;;;;;;3.20;2.88;;;2.60;99.90;;;;;;5049187;28;20205;-67
2022/03/01 06:30:07;;;;;;;5.40;3.47;;;2.70;99.90;;;;;;5048513;28;20531;-67
2022/03/01 06:32:34;;;;;;;6.90;5.47;;;2.70;99.90;;;;;;5048931;28;20279;-68
2022/03/01 06:35:00;;;;;;;6.15;3.97;;;2.70;99.90;;;;;;5044908;28;20210;-67
2022/03/01 06:37:27;;;;;;;4.10;3.22;;;2.70;99.90;;;;;;5042639;28;20206;-67
2022/03/01 06:39:55;;;;;;;4.80;4.25;;;2.70;99.90;;;;;;5043933;28;20206;-68
2022/03/01 06:42:22;;;;;;;7.05;5.15;;;2.70;99.90;;;;;;5040559;28;20738;-70
2022/03/01 06:44:48;;;;;;;7.70;4.05;;;2.80;99.90;;;;;;5047538;28;20220;-66
2022/03/01 06:47:15;;;;;;;8.02;4.63;;;2.80;99.90;;;;;;5048212;28;20259;-64
2022/03/01 06:49:42;;;;;;;7.13;5.53;;;2.80;99.90;;;;;;5040098;28;20195;-66
2022/03/01 06:52:08;;;;;;;7.45;5.15;;;2.90;99.90;;;;;;5044407;28;20225;-66
2022/03/01 06:54:35;;;;;;;6.15;4.13;;;2.90;99.90;;;;;;5049629;28;20205;-64
2022/03/01 06:57:04;;;;;;;5.90;4.05;;;3.00;99.90;;;;;;5048348;28;20713;-65
2022/03/01 06:59:31;;;;;;;10.45;4.72;;;3.10;99.90;;;;;;5050093;28;20213;-64
2022/03/01 07:01:58;;;;;;;8.35;4.18;;;3.20;99.90;;;;;;5045468;28;20593;-65
2022/03/01 07:04:24;;;;;;;3.83;3.47;;;3.20;99.90;;;;;;5050211;28;20207;-65
2022/03/01 07:06:51;;;;;;;6.20;4.22;;;3.30;99.90;;;;;;5040767;28;20213;-71
2022/03/01 07:09:18;;;;;;;7.30;4.78;;;3.30;99.90;;;;;;5046857;28;20202;-68
2022/03/01 07:11:45;;;;;;;7.90;5.72;;;3.40;99.90;;;;;;5044269;28;20301;-65
2022/03/01 07:14:13;;;;;;;4.65;3.75;;;3.40;99.90;;;;;;5040859;28;20211;-67
2022/03/01 07:16:39;;;;;;;4.07;3.70;;;3.40;99.90;;;;;;5046101;28;20256;-68
2022/03/01 07:19:06;;;;;;;7.68;3.80;;;3.40;99.90;;;;;;5046861;28;20210;-66
2022/03/01 07:21:33;;;;;;;5.85;4.57;;;3.40;99.90;;;;;;5051398;28;20229;-65
2022/03/01 07:24:00;;;;;;;10.25;4.90;;;3.30;99.90;;;;;;5055387;28;20214;-68
2022/03/01 07:26:26;;;;;;;3.85;3.42;;;3.40;99.90;;;;;;5043900;28;20210;-66
2022/03/01 07:28:54;;;;;;;5.07;4.40;;;3.30;99.90;;;;;;5046485;28;20210;-67
2022/03/01 07:31:22;;;;;;;5.88;5.22;;;3.30;99.90;;;;;;5046390;28;20280;-65
2022/03/01 07:33:49;;;;;;;4.72;4.00;;;3.40;99.90;;;;;;5047969;28;20248;-67
2022/03/01 07:36:15;;;;;;;6.30;3.78;;;3.40;99.90;;;;;;5049039;28;20201;-66
2022/03/01 07:38:42;;;;;;;3.78;3.47;;;3.40;99.90;;;;;;5045204;28;20261;-67
2022/03/01 07:41:09;;;;;;;5.78;4.28;;;3.40;99.90;;;;;;5048624;28;20323;-69
2022/03/01 07:43:36;;;;;;;7.43;5.38;;;3.40;99.90;;;;;;5045270;28;20205;-67
2022/03/01 07:46:05;;;;;;;6.25;3.65;;;3.50;99.90;;;;;;5051189;28;20276;-68
2022/03/01 07:48:33;;;;;;;6.15;4.03;;;3.50;99.90;;;;;;5040477;28;20625;-67
2022/03/01 07:50:59;;;;;;;8.50;4.03;;;3.50;99.90;;;;;;5038221;28;20222;-69
2022/03/01 07:53:26;;;;;;;5.57;5.07;;;3.50;99.90;;;;;;5050351;28;20200;-69
2022/03/01 07:55:52;;;;;;;3.30;3.00;;;3.60;99.90;;;;;;5048213;28;20210;-68
2022/03/01 07:58:19;;;;;;;4.40;4.00;;;3.60;99.90;;;;;;5048280;28;20206;-67
2022/03/01 08:00:46;;;;;;;4.90;3.92;;;3.60;99.90;;;;;;5047032;28;20276;-65
2022/03/01 08:03:12;;;;;;;9.82;4.13;;;3.70;99.90;;;;;;5050773;28;20222;-66
2022/03/01 08:05:41;;;;;;;6.95;3.92;;;3.70;99.90;;;;;;5055502;28;20252;-69
2022/03/01 08:08:08;;;;;;;6.38;4.35;;;3.80;99.90;;;;;;5048247;28;20210;-67
2022/03/01 08:10:34;;;;;;;9.80;4.28;;;3.90;99.90;;;;;;5048509;28;20205;-65
2022/03/01 08:13:01;;;;;;;5.47;3.33;;;3.90;99.90;;;;;;5048021;28;20213;-66
2022/03/01 08:15:28;;;;;;;3.95;3.40;;;4.00;99.90;;;;;;5048882;28;20210;-65
2022/03/01 08:17:56;;;;;;;7.80;5.05;;;4.10;99.90;;;;;;5048102;28;20197;-68
2022/03/01 08:20:24;;;;;;;7.22;5.47;;;4.20;99.90;;;;;;5041877;28;20256;-67
2022/03/01 08:22:52;;;;;;;5.85;3.58;;;4.20;99.90;;;;;;5040719;28;20307;-67
2022/03/01 08:25:20;;;;;;;3.55;3.20;;;4.30;99.90;;;;;;5044132;28;20206;-71
2022/03/01 08:27:47;;;;;;;3.40;3.10;;;4.30;99.90;;;;;;5047012;28;20263;-70
2022/03/01 08:30:14;;;;;;;4.82;4.32;;;4.40;99.90;;;;;;5043236;28;20348;-68
2022/03/01 08:32:41;;;;;;;5.30;4.50;;;4.50;99.90;;;;;;5044745;28;20220;-69
2022/03/01 08:35:08;;;;;;;4.47;3.30;;;4.60;99.90;;;;;;5046269;28;22042;-69
2022/03/01 08:37:35;;;;;;;6.25;4.78;;;4.80;99.90;;;;;;5046080;28;20240;-68
2022/03/01 08:40:04;;;;;;;6.90;3.90;;;5.00;99.90;;;;;;5046506;28;20203;-69
2022/03/01 08:42:31;;;;;;;5.78;3.63;;;5.20;99.90;;;;;;5059763;28;20233;-70
2022/03/01 08:44:58;;;;;;;5.60;4.35;;;5.40;99.90;;;;;;5059677;28;20207;-71
2022/03/01 08:47:26;;;;;;;7.72;5.10;;;5.70;99.90;;;;;;5045521;28;20204;-71
2022/03/01 08:49:53;;;;;;;6.68;3.60;;;6.10;99.90;;;;;;5045335;28;20209;-72
2022/03/01 08:52:20;;;;;;;4.30;3.90;;;6.40;99.90;;;;;;5046075;28;20215;-72
2022/03/01 08:54:46;;;;;;;5.57;4.57;;;6.70;99.90;;;;;;5046671;28;20627;-71
2022/03/01 08:57:15;;;;;;;9.68;3.42;;;6.80;99.90;;;;;;5043342;28;20197;-72
2022/03/01 08:59:42;;;;;;;5.75;4.03;;;6.90;99.90;;;;;;5047921;28;20195;-69
2022/03/01 09:02:08;;;;;;;5.95;4.18;;;7.10;99.90;;;;;;5048082;28;20226;-69
2022/03/01 09:04:35;;;;;;;6.03;4.80;;;7.30;99.90;;;;;;5048026;28;20669;-70
2022/03/01 09:07:03;;;;;;;5.25;4.32;;;7.30;99.90;;;;;;5042985;28;20259;-66
2022/03/01 09:09:31;;;;;;;6.47;4.75;;;7.10;99.90;;;;;;5045910;28;20205;-68
2022/03/01 09:11:57;;;;;;;6.72;4.78;;;6.90;99.90;;;;;;5043381;28;20562;-68
2022/03/01 09:14:25;;;;;;;7.28;4.72;;;7.00;99.90;;;;;;5044712;28;20205;-69
2022/03/01 09:16:52;;;;;;;4.38;3.50;;;7.00;99.90;;;;;;5052762;28;20197;-69
2022/03/01 09:19:19;;;;;;;4.78;3.72;;;6.90;99.90;;;;;;5043864;28;20664;-72
2022/03/01 09:21:46;;;;;;;7.68;4.30;;;6.90;99.90;;;;;;5040162;28;20229;-65
2022/03/01 09:24:13;;;;;;;4.30;3.55;;;6.90;99.90;;;;;;5044356;28;20697;-67
2022/03/01 09:26:40;;;;;;;5.90;4.40;;;6.90;99.90;;;;;;5043438;28;20229;-66
2022/03/01 09:29:07;;;;;;;4.53;3.47;;;6.90;99.90;;;;;;5045434;28;20753;-69
2022/03/01 09:31:35;;;;;;;5.15;3.70;;;7.00;99.90;;;;;;5047371;28;20692;-67
2022/03/01 09:34:02;;;;;;;7.18;4.45;;;6.80;99.90;;;;;;5047770;28;20265;-67
2022/03/01 09:36:29;;;;;;;5.65;4.47;;;6.70;99.90;;;;;;5055684;28;20195;-67
2022/03/01 09:38:55;;;;;;;6.97;3.88;;;6.70;99.90;;;;;;5042951;28;20207;-68
2022/03/01 09:41:22;;;;;;;4.32;3.92;;;6.80;99.90;;;;;;5048141;28;20217;-69
2022/03/01 09:43:52;;;;;;;6.10;3.42;;;6.70;99.90;;;;;;5050345;28;20220;-68
2022/03/01 09:46:19;;;;;;;7.65;4.70;;;6.70;99.90;;;;;;5050617;28;20201;-67
2022/03/01 09:48:47;;;;;;;6.68;4.22;;;6.60;99.90;;;;;;5053995;28;20230;-69
2022/03/01 09:51:15;;;;;;;5.60;4.40;;;6.60;99.90;;;;;;5049666;28;20239;-69
2022/03/01 09:53:42;;;;;;;9.30;4.47;;;6.50;99.90;;;;;;5040961;28;20208;-68
2022/03/01 09:56:10;;;;;;;4.57;3.67;;;6.40;99.90;;;;;;5049231;28;20198;-68
2022/03/01 09:58:38;;;;;;;5.63;3.35;;;6.30;99.90;;;;;;5051425;28;20213;-69
2022/03/01 10:01:05;;;;;;;5.10;4.05;;;6.10;99.90;;;;;;5054323;28;20327;-62
2022/03/01 10:03:35;;;;;;;3.97;3.40;;;6.10;99.90;;;;;;5053552;28;20639;-70
2022/03/01 10:06:09;;;;;;;8.68;4.30;;;6.10;99.90;;;;;;5057171;28;20448;-68
2022/03/01 10:08:36;;;;;;;4.00;3.60;;;6.30;99.90;;;;;;5053851;28;20681;-64
2022/03/01 10:11:03;;;;;;;10.90;3.92;;;6.60;99.90;;;;;;5054157;28;20283;-65
2022/03/01 10:13:31;;;;;;;5.05;4.00;;;6.90;99.90;;;;;;5048998;28;20284;-65
2022/03/01 10:16:06;;;;;;;3.88;3.25;;;7.20;99.90;;;;;;5051916;28;20224;-64
2022/03/01 10:18:35;;;;;;;6.22;4.13;;;7.60;99.90;;;;;;5045894;28;20208;-69
2022/03/01 10:21:04;;;;;;;5.47;4.93;;;8.10;99.90;;;;;;5049539;28;20224;-69
2022/03/01 10:23:32;;;;;;;6.30;3.45;;;8.60;99.90;;;;;;5053999;28;20226;-70
2022/03/01 10:26:10;;;;;;;5.85;4.45;;;9.10;99.90;;;;;;5061880;28;20198;-72
2022/03/01 10:28:38;;;;;;;3.73;3.20;;;9.40;99.90;;;;;;5049496;28;20213;-69
2022/03/01 10:31:13;;;;;;;8.77;4.83;;;9.70;99.90;;;;;;5048237;28;20939;-69
2022/03/01 10:33:41;;;;;;;5.47;4.03;;;9.80;99.20;;;;;;5047665;28;20945;-68
2022/03/01 10:36:08;;;;;;;4.37;3.60;;;9.90;99.00;;;;;;5051528;28;20964;-70
2022/03/01 10:38:39;;;;;;;4.70;4.30;;;10.10;97.20;;;;;;5047360;28;20475;-69
2022/03/01 10:41:05;;;;;;;5.80;3.77;;;10.20;97.60;;;;;;5055957;28;20464;-70
2022/03/01 10:43:32;;;;;;;5.37;3.80;;;10.40;97.20;;;;;;5064356;28;21151;-69
2022/03/01 10:46:02;;;;;;;6.63;4.27;;;10.30;96.10;;;;;;5051751;28;20448;-69
2022/03/01 10:48:34;;;;;;;5.17;4.17;;;10.10;95.50;;;;;;5064756;28;20475;-69
2022/03/01 10:51:04;;;;;;;4.77;3.77;;;9.80;96.10;;;;;;5057096;28;21213;-69
2022/03/01 10:53:32;;;;;;;7.70;5.33;;;9.60;96.00;;;;;;5059393;28;20453;-70
2022/03/01 10:56:04;;;;;;;6.60;4.30;;;9.70;96.00;;;;;;5064209;28;20447;-70
2022/03/01 10:58:32;;;;;;;4.43;4.03;;;9.70;96.40;;;;;;5062245;28;20444;-70
2022/03/01 11:00:59;;;;;;;6.30;3.60;;;9.70;95.70;;;;;;5042719;28;20473;-70
2022/03/01 11:03:25;;;;;;;4.93;4.20;;;9.60;95.60;;;;;;5047822;28;20503;-70
2022/03/01 11:05:55;;;;;;;6.00;3.90;;;9.50;96.10;;;;;;5058031;28;20444;-71
2022/03/01 11:08:25;;;;;;;9.03;3.80;;;9.50;96.20;;;;;;5058250;28;20532;-69
2022/03/01 11:10:53;;;;;;;7.40;4.93;;;9.60;95.90;;;;;;5050856;28;20507;-69
2022/03/01 11:13:25;;;;;;;5.63;4.23;;;9.80;96.40;;;;;;5054000;28;20477;-69
2022/03/01 11:16:08;;;;;;;6.17;3.93;;;10.00;95.40;;;;;;5071858;28;20488;-70
2022/03/01 11:18:44;;;;;;;6.47;4.17;;;10.00;95.00;;;;;;5046499;28;20449;-71
2022/03/01 11:21:12;;;;;;;6.37;4.27;;;10.00;95.00;;;;;;5049648;28;20472;-70
2022/03/01 11:23:41;;;;;;;5.33;3.80;;;10.00;94.90;;;;;;5051484;28;20507;-68
2022/03/01 11:26:10;;;;;;;4.30;3.70;;;10.10;94.80;;;;;;5051218;28;20946;-69
2022/03/01 11:28:40;;;;;;;6.00;3.20;;;10.10;93.70;;;;;;5055380;28;20462;-69
2022/03/01 11:31:19;;;;;;;6.30;4.43;;;10.00;93.00;;;;;;5047540;28;20484;-70
2022/03/01 11:33:56;;;;;;;4.23;3.63;;;9.90;93.80;;;;;;5050070;28;20476;-71
2022/03/01 11:36:24;;;;;;;5.43;3.97;;;10.00;93.60;;;;;;5057780;28;20448;-71
2022/03/01 11:38:50;;;;;;;4.10;3.37;;;10.00;93.40;;;;;;5057759;28;20518;-71
2022/03/01 11:41:22;;;;;;;5.73;3.10;;;10.00;93.40;;;;;;5067159;22;20449;-66
2022/03/01 11:43:55;;;;;;;4.40;3.20;;;10.10;93.20;;;;;;5060382;28;20844;-66
2022/03/01 11:46:22;;;;;;;4.43;3.50;;;10.10;92.90;;;;;;5067970;28;20445;-66
2022/03/01 11:48:53;;;;;;;4.10;3.67;;;10.30;93.00;;;;;;5065529;28;20444;-66
2022/03/01 11:51:30;;;;;;;7.17;3.63;;;10.40;92.40;;;;;;5065317;28;21049;-67
2022/03/01 11:53:58;;;;;;;4.63;3.63;;;10.40;92.50;;;;;;5065795;28;20454;-65
2022/03/01 11:56:25;;;;;;;6.47;3.37;;;10.30;91.80;;;;;;5061783;28;20453;-70
2022/03/01 11:58:53;;;;;;;5.63;3.83;;;10.30;91.80;;;;;;5063549;28;20448;-67
2022/03/01 12:01:23;;;;;;;7.33;3.80;;;10.40;91.30;;;;;;5060460;28;20996;-67
2022/03/01 12:03:52;;;;;;;3.73;3.07;;;10.50;90.30;;;;;;5065097;28;20479;-68
2022/03/01 12:06:22;;;;;;;4.90;4.10;;;10.40;89.50;;;;;;5067943;28;20544;-68
2022/03/01 12:08:57;;;;;;;5.60;3.80;;;10.40;89.70;;;;;;5066452;28;20447;-69
2022/03/01 12:11:33;;;;;;;4.50;2.60;;;10.40;89.60;;;;;;5064879;28;20567;-68
2022/03/01 12:14:08;;;;;;;6.43;3.40;;;10.40;88.50;;;;;;5063495;28;20447;-69
2022/03/01 12:16:36;;;;;;;5.50;3.20;;;10.50;89.30;;;;;;5065668;28;20454;-68
2022/03/01 12:19:15;;;;;;;4.30;3.03;;;10.70;89.50;;;;;;5060565;28;20444;-68
2022/03/01 12:21:48;;;;;;;5.13;3.40;;;10.90;89.50;;;;;;5067223;28;20529;-66
2022/03/01 12:24:15;;;;;;;5.60;3.60;;;11.00;89.30;;;;;;5061461;28;20512;-66
2022/03/01 12:26:45;;;;;;;7.40;4.70;;;11.10;88.90;;;;;;5067648;28;20517;-67
2022/03/01 12:29:15;;;;;;;4.20;3.37;;;11.30;89.10;;;;;;5071385;28;20516;-68
2022/03/01 12:31:41;;;;;;;5.60;4.10;;;11.70;88.00;;;;;;5065839;28;21052;-69
2022/03/01 12:34:10;;;;;;;4.80;3.90;;;12.40;88.00;;;;;;5068976;28;20503;-68
2022/03/01 12:36:38;;;;;;;6.40;3.20;;;12.50;87.30;;;;;;5066317;28;20514;-69
2022/03/01 12:39:08;;;;;;;5.23;4.60;;;12.10;87.00;;;;;;5062425;28;20465;-68
2022/03/01 12:41:35;;;;;;;7.07;4.87;;;11.70;87.80;;;;;;5058337;28;20547;-68
2022/03/01 12:44:06;;;;;;;4.70;4.20;;;11.40;89.10;;;;;;5062113;28;20488;-68
2022/03/01 12:46:35;;;;;;;5.30;3.90;;;11.60;89.70;;;;;;5063453;28;20473;-67
2022/03/01 12:49:05;;;;;;;6.80;5.23;;;11.80;88.90;;;;;;5066285;28;20455;-67
2022/03/01 12:51:32;;;;;;;4.50;4.10;;;11.60;88.50;;;;;;5062959;28;20943;-68
2022/03/01 12:54:00;;;;;;;5.23;4.37;;;11.80;89.60;;;;;;5062588;28;20513;-67
2022/03/01 12:56:29;;;;;;;6.20;4.60;;;12.20;88.90;;;;;;5065899;28;20536;-66
2022/03/01 12:59:02;;;;;;;6.50;3.97;;;12.50;88.70;;;;;;5064147;28;20493;-64